Pilot Vessel Akarana — ZMT2938 — position and weather

sailwx.info

Track history (hours):
 
Tides and Currents Weather Stations Pressure Air Temp Water Temp Dewpoint Dewpoint Depression Visibility Wind Speed Wind Dir Waves Ship Positions

Pilot Vessel Akarana

Last reported at 2017-May-27 21:00 UTC. Time now 2017-May-27 21:24 UTC.
Position S 36°44' E 174°51'.

Length 15 m; draft 1.6 m.

Type: Pilot. MMSI: 512000344.

Date/timePositionNaut miles runAvg speedWind from/ knotsBaromVisibWave heightAir tempDewpointWater temp
2017-May-27 21:00S 36°44' E 174°51'5 1.8
2017-May-27 18:14S 36°48' E 174°49'3 0.4
2017-May-27 10:09S 36°51' E 174°47'319.2
2017-May-27 10:00S 36°49' E 174°49'2 2.8
2017-May-27 09:16S 36°47' E 174°48'0 1.1
2017-May-27 08:57S 36°46' E 174°48'2 4.7
2017-May-27 08:30S 36°45' E 174°50'4 0.8
2017-May-27 03:56S 36°48' E 174°49'3 5.4
2017-May-27 03:22S 36°50' E 174°46'3 0.5
2017-May-26 20:59S 36°48' E 174°49'1 0.9
2017-May-26 19:59S 36°49' E 174°50'3 4.1
2017-May-26 19:13S 36°46' E 174°49'1 6.8
2017-May-26 19:00S 36°44' E 174°50'4 2.9
2017-May-26 17:38S 36°48' E 174°49'425.6
2017-May-26 17:28S 36°44' E 174°51'4 0.2
2017-May-25 22:16S 36°48' E 174°49'622.4
2017-May-25 22:01S 36°43' E 174°52'3 2.4
2017-May-25 20:36S 36°46' E 174°49'3 0.8
2017-May-25 17:05S 36°49' E 174°49'323.7
2017-May-25 16:57S 36°46' E 174°49'3 0.6
2017-May-25 12:17S 36°49' E 174°49'3 2.4
2017-May-25 11:09S 36°46' E 174°50'211.2
2017-May-25 11:00S 36°44' E 174°50'6 3.2
2017-May-25 09:02S 36°50' E 174°48'219.6
2017-May-25 08:55S 36°49' E 174°49'3 1.6
2017-May-25 07:09S 36°51' E 174°47'0 0.0
2017-May-25 07:00S 36°51' E 174°47'0 0.0
2017-May-25 06:14S 36°51' E 174°47'0 0.0
2017-May-25 05:58S 36°51' E 174°47'3 1.2
2017-May-25 03:39S 36°49' E 174°49'424.2
2017-May-25 03:29S 36°44' E 174°50'5 1.3
2017-May-24 23:42S 36°49' E 174°49'314.1
2017-May-24 23:30S 36°46' E 174°49'2 5.0
2017-May-24 23:00S 36°44' E 174°50'6 3.9
2017-May-24 21:24S 36°50' E 174°47'717.8
2017-May-24 21:00S 36°44' E 174°51'6 7.4
2017-May-24 20:15S 36°49' E 174°49'415.3
2017-May-24 20:01S 36°46' E 174°49'3 0.3
2017-May-24 10:04S 36°48' E 174°49'0 0.8
2017-May-24 09:44S 36°48' E 174°49'1 0.0
2017-May-22 20:13S 36°49' E 174°49'420.0
2017-May-22 20:00S 36°45' E 174°50'6 6.7
2017-May-22 19:05S 36°51' E 174°47'0 1.2
2017-May-22 18:55S 36°50' E 174°47'816.2
2017-May-22 18:26S 36°43' E 174°51'8 9.4
2017-May-22 17:35S 36°51' E 174°47'0 1.6
2017-May-22 17:22S 36°50' E 174°47'719.7
2017-May-22 17:01S 36°44' E 174°51'5 0.2
2017-May-21 17:04S 36°48' E 174°49'325.8
2017-May-21 16:57S 36°45' E 174°50'6 0.8
2017-May-21 09:41S 36°50' E 174°47'4 2.9
2017-May-21 08:18S 36°47' E 174°49'2 0.2
2017-May-20 23:36S 36°48' E 174°49'328.5
2017-May-20 23:30S 36°46' E 174°49'3 0.7
2017-May-20 19:41S 36°48' E 174°49'421.9
2017-May-20 19:30S 36°44' E 174°50'4 1.8
2017-May-20 17:13S 36°48' E 174°49'420.5
2017-May-20 17:01S 36°44' E 174°50'4 2.9
2017-May-20 15:31S 36°48' E 174°49'0 0.0
2017-May-20 11:17S 36°49' E 174°49'1 0.1
2017-May-20 04:08S 36°48' E 174°49'0 0.0
2017-May-19 17:13S 36°48' E 174°49'421.6
2017-May-19 17:01S 36°44' E 174°50'2 0.3
2017-May-19 11:00S 36°46' E 174°50'2 0.5
2017-May-19 05:43S 36°48' E 174°49'628.4
2017-May-19 05:30S 36°43' E 174°53'6 2.4
2017-May-19 03:12S 36°48' E 174°49'1 0.2
2017-May-18 21:20S 36°49' E 174°49'3 0.2
2017-May-18 06:08S 36°46' E 174°50'0 0.1
2017-May-18 05:03S 36°46' E 174°50'223.8
2017-May-18 04:59S 36°44' E 174°50'  
Track history (hours):
 
Tides and Currents Weather Stations Pressure Air Temp Water Temp Dewpoint Dewpoint Depression Visibility Wind Speed Wind Dir Waves Ship Positions

Pilot Vessel Akarana

Last reported at 2017-May-27 21:00 UTC. Time now 2017-May-27 21:24 UTC.
Position S 36°44' E 174°51'.

Length 15 m; draft 1.6 m.

Type: Pilot. MMSI: 512000344.

Date/timePositionNaut miles runAvg speedWind from/ knotsBaromVisibWave heightAir tempDewpointWater temp
2017-May-27 21:00S 36°44' E 174°51'5 1.8
2017-May-27 18:14S 36°48' E 174°49'3 0.4
2017-May-27 10:09S 36°51' E 174°47'319.2
2017-May-27 10:00S 36°49' E 174°49'2 2.8
2017-May-27 09:16S 36°47' E 174°48'0 1.1
2017-May-27 08:57S 36°46' E 174°48'2 4.7
2017-May-27 08:30S 36°45' E 174°50'4 0.8
2017-May-27 03:56S 36°48' E 174°49'3 5.4
2017-May-27 03:22S 36°50' E 174°46'3 0.5
2017-May-26 20:59S 36°48' E 174°49'1 0.9
2017-May-26 19:59S 36°49' E 174°50'3 4.1
2017-May-26 19:13S 36°46' E 174°49'1 6.8
2017-May-26 19:00S 36°44' E 174°50'4 2.9
2017-May-26 17:38S 36°48' E 174°49'425.6
2017-May-26 17:28S 36°44' E 174°51'4 0.2
2017-May-25 22:16S 36°48' E 174°49'622.4
2017-May-25 22:01S 36°43' E 174°52'3 2.4
2017-May-25 20:36S 36°46' E 174°49'3 0.8
2017-May-25 17:05S 36°49' E 174°49'323.7
2017-May-25 16:57S 36°46' E 174°49'3 0.6
2017-May-25 12:17S 36°49' E 174°49'3 2.4
2017-May-25 11:09S 36°46' E 174°50'211.2
2017-May-25 11:00S 36°44' E 174°50'6 3.2
2017-May-25 09:02S 36°50' E 174°48'219.6
2017-May-25 08:55S 36°49' E 174°49'3 1.6
2017-May-25 07:09S 36°51' E 174°47'0 0.0
2017-May-25 07:00S 36°51' E 174°47'0 0.0
2017-May-25 06:14S 36°51' E 174°47'0 0.0
2017-May-25 05:58S 36°51' E 174°47'3 1.2
2017-May-25 03:39S 36°49' E 174°49'424.2
2017-May-25 03:29S 36°44' E 174°50'5 1.3
2017-May-24 23:42S 36°49' E 174°49'314.1
2017-May-24 23:30S 36°46' E 174°49'2 5.0
2017-May-24 23:00S 36°44' E 174°50'6 3.9
2017-May-24 21:24S 36°50' E 174°47'717.8
2017-May-24 21:00S 36°44' E 174°51'6 7.4
2017-May-24 20:15S 36°49' E 174°49'415.3
2017-May-24 20:01S 36°46' E 174°49'3 0.3
2017-May-24 10:04S 36°48' E 174°49'0 0.8
2017-May-24 09:44S 36°48' E 174°49'1 0.0
2017-May-22 20:13S 36°49' E 174°49'420.0
2017-May-22 20:00S 36°45' E 174°50'6 6.7
2017-May-22 19:05S 36°51' E 174°47'0 1.2
2017-May-22 18:55S 36°50' E 174°47'816.2
2017-May-22 18:26S 36°43' E 174°51'8 9.4
2017-May-22 17:35S 36°51' E 174°47'0 1.6
2017-May-22 17:22S 36°50' E 174°47'719.7
2017-May-22 17:01S 36°44' E 174°51'5 0.2
2017-May-21 17:04S 36°48' E 174°49'325.8
2017-May-21 16:57S 36°45' E 174°50'6 0.8
2017-May-21 09:41S 36°50' E 174°47'4 2.9
2017-May-21 08:18S 36°47' E 174°49'2 0.2
2017-May-20 23:36S 36°48' E 174°49'328.5
2017-May-20 23:30S 36°46' E 174°49'3 0.7
2017-May-20 19:41S 36°48' E 174°49'421.9
2017-May-20 19:30S 36°44' E 174°50'4 1.8
2017-May-20 17:13S 36°48' E 174°49'420.5
2017-May-20 17:01S 36°44' E 174°50'4 2.9
2017-May-20 15:31S 36°48' E 174°49'0 0.0
2017-May-20 11:17S 36°49' E 174°49'1 0.1
2017-May-20 04:08S 36°48' E 174°49'0 0.0
2017-May-19 17:13S 36°48' E 174°49'421.6
2017-May-19 17:01S 36°44' E 174°50'2 0.3
2017-May-19 11:00S 36°46' E 174°50'2 0.5
2017-May-19 05:43S 36°48' E 174°49'628.4
2017-May-19 05:30S 36°43' E 174°53'6 2.4
2017-May-19 03:12S 36°48' E 174°49'1 0.2
2017-May-18 21:20S 36°49' E 174°49'3 0.2
2017-May-18 06:08S 36°46' E 174°50'0 0.1
2017-May-18 05:03S 36°46' E 174°50'223.8
2017-May-18 04:59S 36°44' E 174°50'  

Dump ship's entire track history